createdAt,value
2018-10-12T00:00:09.029Z,8.07
2018-10-12T00:01:14.750Z,8.43
2018-10-12T00:02:17.467Z,7.53
2018-10-12T00:03:20.174Z,7.70
2018-10-12T00:04:23.254Z,7.70
2018-10-12T00:05:25.902Z,8.60
2018-10-12T00:06:28.753Z,8.47
2018-10-12T00:07:31.398Z,8.27
2018-10-12T00:08:34.389Z,7.70
2018-10-12T00:09:37.075Z,8.07
2018-10-12T00:10:39.730Z,7.53
2018-10-12T00:11:42.382Z,8.50
2018-10-12T00:12:45.027Z,8.13
2018-10-12T00:13:47.739Z,7.67
2018-10-12T00:14:50.401Z,8.00
2018-10-12T00:15:53.042Z,7.57
2018-10-12T00:16:55.694Z,8.67
2018-10-12T00:17:58.750Z,8.87
2018-10-12T00:19:01.492Z,8.13
2018-10-12T00:20:04.670Z,7.77
2018-10-12T00:21:07.322Z,7.83
2018-10-12T00:22:09.974Z,8.23
2018-10-12T00:23:12.626Z,8.90
2018-10-12T00:24:15.330Z,7.70
2018-10-12T00:25:17.994Z,8.50
2018-10-12T00:26:20.670Z,8.77
2018-10-12T00:27:23.322Z,9.43
2018-10-12T00:28:25.966Z,8.20
2018-10-12T00:29:28.814Z,10.07
2018-10-12T00:30:31.446Z,9.00
2018-10-12T00:31:34.094Z,7.87
2018-10-12T00:32:36.758Z,9.77
2018-10-12T00:33:39.416Z,8.47
2018-10-12T00:34:42.066Z,9.80
2018-10-12T00:35:44.722Z,8.90
2018-10-12T00:36:47.402Z,8.57
2018-10-12T00:37:50.297Z,9.13
2018-10-12T00:38:52.938Z,8.83
2018-10-12T00:39:55.642Z,9.00
2018-10-12T00:40:58.295Z,8.87
2018-10-12T00:42:00.971Z,8.90
2018-10-12T00:43:03.614Z,7.77
2018-10-12T00:44:06.345Z,9.23
2018-10-12T00:45:09.071Z,9.87
2018-10-12T00:46:11.754Z,9.67
2018-10-12T00:47:14.378Z,9.53
2018-10-12T00:48:17.018Z,11.30
2018-10-12T00:49:19.666Z,9.27
2018-10-12T00:50:22.382Z,8.73
2018-10-12T00:51:25.038Z,10.20
2018-10-12T00:52:27.687Z,9.37
2018-10-12T00:53:30.339Z,9.93
2018-10-12T00:54:32.975Z,10.43
2018-10-12T00:55:35.673Z,10.90
2018-10-12T00:56:38.351Z,9.77
2018-10-12T00:57:41.006Z,10.60
2018-10-12T00:58:43.654Z,8.90
2018-10-12T00:59:46.295Z,9.30
2018-10-12T01:00:48.994Z,9.13
2018-10-12T01:01:51.674Z,10.97
2018-10-12T01:02:54.722Z,9.30
2018-10-12T01:03:57.355Z,10.20
2018-10-12T01:05:00.000Z,10.70
2018-10-12T01:06:02.811Z,9.57
2018-10-12T01:07:05.534Z,9.57
2018-10-12T01:08:08.334Z,10.53
2018-10-12T01:09:11.066Z,9.50
2018-10-12T01:10:13.780Z,10.80
2018-10-12T01:11:16.472Z,10.40
2018-10-12T01:12:31.262Z,9.17
2018-10-12T01:13:33.904Z,10.10
2018-10-12T01:14:36.566Z,9.40
2018-10-12T01:15:39.294Z,10.57
2018-10-12T01:16:41.975Z,9.60
2018-10-12T01:17:44.694Z,10.17
2018-10-12T01:18:47.422Z,12.53
2018-10-12T01:19:50.244Z,11.40
2018-10-12T01:20:52.988Z,10.77
2018-10-12T01:21:55.746Z,12.27
2018-10-12T01:22:58.406Z,11.10
2018-10-12T01:24:01.082Z,10.50
2018-10-12T01:25:04.635Z,10.07
2018-10-12T01:26:07.394Z,10.80
2018-10-12T01:27:10.146Z,13.67
2018-10-12T01:28:12.814Z,9.33
2018-10-12T01:29:15.558Z,11.30
2018-10-12T01:30:18.253Z,12.83
2018-10-12T01:31:20.914Z,13.47
2018-10-12T01:32:28.944Z,12.10
2018-10-12T01:33:31.699Z,13.13
2018-10-12T01:34:34.342Z,13.80
2018-10-12T01:35:37.007Z,12.73
2018-10-12T01:36:39.686Z,11.73
2018-10-12T01:37:42.715Z,14.40
2018-10-12T01:38:45.370Z,17.13
2018-10-12T01:39:48.250Z,10.73
2018-10-12T01:40:50.918Z,15.17
2018-10-12T01:41:53.571Z,12.93
2018-10-12T01:42:56.566Z,18.50
2018-10-12T01:43:59.254Z,15.40
2018-10-12T01:45:02.011Z,13.97
2018-10-12T01:46:04.666Z,12.63
2018-10-12T01:47:07.616Z,14.47
2018-10-12T01:48:10.735Z,14.40
2018-10-12T01:49:13.386Z,12.90
2018-10-12T01:50:16.078Z,13.13
2018-10-12T01:51:18.814Z,13.80
2018-10-12T01:52:21.514Z,14.23
2018-10-12T01:53:24.486Z,12.20
2018-10-12T01:54:27.141Z,14.47
2018-10-12T01:55:29.798Z,15.10
2018-10-12T01:56:32.470Z,14.40
2018-10-12T01:57:35.142Z,15.50
2018-10-12T01:58:37.794Z,13.20
2018-10-12T01:59:40.509Z,12.57
2018-10-12T02:00:43.150Z,15.97
2018-10-12T02:01:45.790Z,14.20
2018-10-12T02:02:48.472Z,13.20
2018-10-12T02:03:51.415Z,11.63
2018-10-12T02:04:54.081Z,12.07
2018-10-12T02:05:56.790Z,12.93
2018-10-12T02:06:59.686Z,12.87
2018-10-12T02:08:02.373Z,13.20
2018-10-12T02:09:06.450Z,14.13
2018-10-12T02:10:09.316Z,13.67
2018-10-12T02:11:11.918Z,11.77
2018-10-12T02:12:14.619Z,12.57
2018-10-12T02:13:17.282Z,13.60
2018-10-12T02:14:20.087Z,12.53
2018-10-12T02:15:22.740Z,11.83
2018-10-12T02:16:25.399Z,13.13
2018-10-12T02:17:28.058Z,11.20
2018-10-12T02:18:30.699Z,11.03
2018-10-12T02:19:33.658Z,11.30
2018-10-12T02:20:36.328Z,11.93
2018-10-12T02:21:38.970Z,11.47
2018-10-12T02:22:42.058Z,12.00
2018-10-12T02:23:44.703Z,14.10
2018-10-12T02:24:47.622Z,11.83
2018-10-12T02:25:50.290Z,14.03
2018-10-12T02:26:52.996Z,13.20
2018-10-12T02:27:55.636Z,12.43
2018-10-12T02:28:58.666Z,12.17
2018-10-12T02:30:01.371Z,12.90
2018-10-12T02:31:04.040Z,11.97
2018-10-12T02:32:06.726Z,11.90
2018-10-12T02:33:09.386Z,13.77
2018-10-12T02:34:12.082Z,10.70
2018-10-12T02:35:14.775Z,12.07
2018-10-12T02:36:17.419Z,10.63
2018-10-12T02:37:20.067Z,10.60
2018-10-12T02:38:22.823Z,10.53
2018-10-12T02:39:25.545Z,10.37
2018-10-12T02:40:28.311Z,11.30
2018-10-12T02:41:31.622Z,10.60
2018-10-12T02:42:34.267Z,11.33
2018-10-12T02:43:36.901Z,10.90
2018-10-12T02:44:39.555Z,12.97
2018-10-12T02:45:42.259Z,9.93
2018-10-12T02:46:44.930Z,9.00
2018-10-12T02:47:47.575Z,9.33
2018-10-12T02:48:50.220Z,9.87
2018-10-12T02:49:52.889Z,8.87
2018-10-12T02:50:55.603Z,9.07
2018-10-12T02:51:58.247Z,10.73
2018-10-12T02:53:00.912Z,10.17
2018-10-12T02:54:03.602Z,10.73
2018-10-12T02:55:06.295Z,10.27
2018-10-12T02:56:13.490Z,8.77
2018-10-12T02:57:16.166Z,8.97
2018-10-12T02:58:18.830Z,9.03
2018-10-12T02:59:21.494Z,10.80
2018-10-12T03:00:24.126Z,10.70
2018-10-12T03:01:26.837Z,10.83
2018-10-12T03:02:29.491Z,8.97
2018-10-12T03:03:32.172Z,8.90
2018-10-12T03:04:34.822Z,9.57
2018-10-12T03:05:37.462Z,8.13
2018-10-12T03:06:40.113Z,8.97
2018-10-12T03:07:42.794Z,9.33
2018-10-12T03:08:45.789Z,9.33
2018-10-12T03:09:48.451Z,8.80
2018-10-12T03:10:51.113Z,9.23
2018-10-12T03:11:53.758Z,8.43
2018-10-12T03:12:56.659Z,8.73
2018-10-12T03:13:59.310Z,10.77
2018-10-12T03:15:01.992Z,8.73
2018-10-12T03:16:12.098Z,9.40
2018-10-12T03:17:14.822Z,8.50
2018-10-12T03:18:17.464Z,9.43
2018-10-12T03:19:20.141Z,8.73
2018-10-12T03:20:22.802Z,9.90
2018-10-12T03:21:25.467Z,9.27
2018-10-12T03:22:28.162Z,8.83
2018-10-12T03:23:30.818Z,8.07
2018-10-12T03:24:33.463Z,8.63
2018-10-12T03:25:36.146Z,8.67
2018-10-12T03:26:38.802Z,8.57
2018-10-12T03:27:52.566Z,8.40
2018-10-12T03:28:55.494Z,9.60
2018-10-12T03:29:58.158Z,8.27
2018-10-12T03:31:01.464Z,8.30
2018-10-12T03:32:04.210Z,8.53
2018-10-12T03:33:06.975Z,7.90
2018-10-12T03:34:09.772Z,9.03
2018-10-12T03:35:12.474Z,7.83
2018-10-12T03:36:15.261Z,9.33
2018-10-12T03:37:18.318Z,10.87
2018-10-12T03:38:21.000Z,7.80
2018-10-12T03:39:23.702Z,8.30
2018-10-12T03:40:26.398Z,8.80
2018-10-12T03:41:29.130Z,7.47
2018-10-12T03:42:31.840Z,8.73
2018-10-12T03:43:34.874Z,7.70
2018-10-12T03:44:37.547Z,8.90
2018-10-12T03:45:40.557Z,7.57
2018-10-12T03:46:43.541Z,7.30
2018-10-12T03:47:46.226Z,7.97
2018-10-12T03:48:48.920Z,7.67
2018-10-12T03:49:51.623Z,7.93
2018-10-12T03:50:54.306Z,7.50
2018-10-12T03:51:57.098Z,8.40
2018-10-12T03:52:59.723Z,8.40
2018-10-12T03:54:02.435Z,7.93
2018-10-12T03:55:05.378Z,7.20
2018-10-12T03:56:08.378Z,7.27
2018-10-12T03:57:11.129Z,7.23
2018-10-12T03:58:13.888Z,7.33
2018-10-12T03:59:16.582Z,6.83
2018-10-12T04:00:19.319Z,7.30
2018-10-12T04:01:22.023Z,7.33
2018-10-12T04:02:24.723Z,6.80
2018-10-12T04:03:27.443Z,7.07
2018-10-12T04:04:30.158Z,6.83
2018-10-12T04:05:32.856Z,6.87
2018-10-12T04:06:35.555Z,6.37
2018-10-12T04:07:38.274Z,6.50
2018-10-12T04:08:40.990Z,6.13
2018-10-12T04:09:43.725Z,6.70
2018-10-12T04:10:46.433Z,5.97
2018-10-12T04:11:49.146Z,6.53
2018-10-12T04:12:52.120Z,6.77
2018-10-12T04:13:54.839Z,6.13
2018-10-12T04:14:57.516Z,5.97
2018-10-12T04:16:00.265Z,6.60
2018-10-12T04:17:02.955Z,7.03
2018-10-12T04:18:05.658Z,5.93
2018-10-12T04:19:08.530Z,5.90
2018-10-12T04:20:11.415Z,6.17
2018-10-12T04:21:14.124Z,5.50
2018-10-12T04:22:20.578Z,6.43
2018-10-12T04:23:23.284Z,5.90
2018-10-12T04:24:26.035Z,5.53
2018-10-12T04:25:28.807Z,5.63
2018-10-12T04:26:31.524Z,5.53
2018-10-12T04:27:34.218Z,5.73
2018-10-12T04:28:36.914Z,5.57
2018-10-12T04:29:39.688Z,5.80
2018-10-12T04:30:42.427Z,5.50
2018-10-12T04:31:45.149Z,5.43
2018-10-12T04:32:47.857Z,5.73
2018-10-12T04:33:50.625Z,5.50
2018-10-12T04:34:53.365Z,5.30
2018-10-12T04:35:56.108Z,5.53
2018-10-12T04:36:58.806Z,5.93
2018-10-12T04:38:01.578Z,4.87
2018-10-12T04:39:15.377Z,6.20
2018-10-12T04:41:28.909Z,5.73
2018-10-12T04:42:31.691Z,5.70
2018-10-12T04:43:34.482Z,5.90
2018-10-12T04:44:37.275Z,6.20
2018-10-12T04:45:40.162Z,5.67
2018-10-12T04:46:43.830Z,4.93
2018-10-12T04:47:46.834Z,5.00
2018-10-12T04:48:51.151Z,5.67
2018-10-12T04:49:54.372Z,5.77
2018-10-12T04:50:57.223Z,5.30
2018-10-12T04:52:00.262Z,5.77
2018-10-12T04:53:03.039Z,5.37
2018-10-12T04:54:06.086Z,5.77
2018-10-12T04:55:08.831Z,6.40
2018-10-12T04:56:13.340Z,5.70
2018-10-12T04:57:16.126Z,5.70
2018-10-12T04:58:18.864Z,7.57
2018-10-12T04:59:21.838Z,5.80
2018-10-12T05:00:24.564Z,5.80
2018-10-12T05:01:27.368Z,6.57
2018-10-12T05:02:30.185Z,5.80
2018-10-12T05:03:33.035Z,5.80
2018-10-12T05:04:35.848Z,6.60
2018-10-12T05:05:38.560Z,6.40
2018-10-12T05:06:41.360Z,5.70
2018-10-12T05:07:44.221Z,6.20
2018-10-12T05:08:46.943Z,6.73
2018-10-12T05:09:49.664Z,6.70
2018-10-12T05:10:52.407Z,6.20
2018-10-12T05:11:55.126Z,6.33
2018-10-12T05:12:57.907Z,5.83
2018-10-12T05:14:07.624Z,6.43
2018-10-12T05:15:10.376Z,6.40
2018-10-12T05:16:13.110Z,6.77
2018-10-12T05:17:15.929Z,5.80
2018-10-12T05:18:18.801Z,6.70
2018-10-12T05:19:21.528Z,6.20
2018-10-12T05:20:24.287Z,6.60
2018-10-12T05:21:27.007Z,6.87
2018-10-12T05:22:29.708Z,6.33
2018-10-12T05:23:32.454Z,6.53
2018-10-12T05:24:35.159Z,6.23
2018-10-12T05:25:37.874Z,6.90
2018-10-12T05:26:40.581Z,6.50
2018-10-12T05:27:43.314Z,6.17
2018-10-12T05:28:46.440Z,6.57
2018-10-12T05:29:49.151Z,7.10
2018-10-12T05:30:51.891Z,6.30
2018-10-12T05:31:54.636Z,6.57
2018-10-12T05:32:57.315Z,6.60
2018-10-12T05:35:09.348Z,6.13
2018-10-12T05:36:12.148Z,6.43
2018-10-12T05:37:14.832Z,6.90
2018-10-12T05:38:17.975Z,6.73
2018-10-12T05:39:21.011Z,6.97
2018-10-12T05:40:24.962Z,7.30
2018-10-12T05:41:27.657Z,6.70
2018-10-12T05:42:30.360Z,7.23
2018-10-12T05:43:33.225Z,6.83
2018-10-12T05:44:36.091Z,7.07
2018-10-12T05:45:38.790Z,6.90
2018-10-12T05:46:41.531Z,7.17
2018-10-12T05:47:44.287Z,7.40
2018-10-12T05:48:58.205Z,8.20
2018-10-12T05:50:03.971Z,8.37
2018-10-12T05:51:07.420Z,8.70
2018-10-12T05:52:10.211Z,8.20
2018-10-12T05:53:13.252Z,8.17
2018-10-12T05:54:16.221Z,8.53
2018-10-12T05:55:19.464Z,8.63
2018-10-12T05:56:24.619Z,8.40
2018-10-12T05:57:27.614Z,9.27
2018-10-12T05:58:30.737Z,9.53
2018-10-12T05:59:33.493Z,9.10
2018-10-12T06:00:36.592Z,9.63
2018-10-12T06:01:39.339Z,10.53
2018-10-12T06:02:42.055Z,11.87
2018-10-12T06:03:44.827Z,11.37
2018-10-12T06:04:47.586Z,11.23
2018-10-12T06:05:50.659Z,13.60
2018-10-12T06:06:53.375Z,12.80
2018-10-12T06:07:56.095Z,11.90
2018-10-12T06:08:58.823Z,11.67
2018-10-12T06:10:01.664Z,11.37
2018-10-12T06:11:04.791Z,15.87
2018-10-12T06:12:07.592Z,11.30
2018-10-12T06:13:10.295Z,11.77
2018-10-12T06:14:13.002Z,11.67
2018-10-12T06:15:15.735Z,11.70
2018-10-12T06:16:18.442Z,10.80
2018-10-12T06:17:21.181Z,11.70
2018-10-12T06:18:23.895Z,11.70
2018-10-12T06:19:26.631Z,11.60
2018-10-12T06:20:29.330Z,10.90
2018-10-12T06:21:32.371Z,11.83
2018-10-12T06:22:35.061Z,11.80
2018-10-12T06:23:37.796Z,11.93
2018-10-12T06:24:40.492Z,10.80
2018-10-12T06:25:43.375Z,11.70
2018-10-12T06:26:46.339Z,11.20
2018-10-12T06:27:49.091Z,11.27
2018-10-12T06:28:51.786Z,11.30
2018-10-12T06:29:54.467Z,15.23
2018-10-12T06:30:57.171Z,12.07
2018-10-12T06:32:00.439Z,12.73
2018-10-12T06:33:03.227Z,11.63
2018-10-12T06:34:05.912Z,11.40
2018-10-12T06:35:08.635Z,16.90
2018-10-12T06:36:11.327Z,15.43
2018-10-12T06:37:14.306Z,11.03
2018-10-12T06:38:17.027Z,10.73
2018-10-12T06:39:19.722Z,10.93
2018-10-12T06:40:22.432Z,11.07
2018-10-12T06:41:25.172Z,10.67
2018-10-12T06:42:28.343Z,12.57
2018-10-12T06:43:31.069Z,12.00
2018-10-12T06:44:33.751Z,10.67
2018-10-12T06:45:36.475Z,11.27
2018-10-12T06:46:39.285Z,11.57
2018-10-12T06:47:42.211Z,11.43
2018-10-12T06:48:44.915Z,13.43
2018-10-12T06:49:47.603Z,12.33
2018-10-12T06:50:50.312Z,11.70
2018-10-12T06:51:52.999Z,11.83
2018-10-12T06:52:55.641Z,12.13
2018-10-12T06:53:58.419Z,12.93
2018-10-12T06:55:01.095Z,11.40
2018-10-12T06:56:03.799Z,12.20
2018-10-12T06:57:06.544Z,12.00
2018-10-12T06:58:09.351Z,12.60
2018-10-12T06:59:12.063Z,11.23
2018-10-12T07:00:14.763Z,12.63
2018-10-12T07:01:17.523Z,11.43
2018-10-12T07:02:20.659Z,11.43
2018-10-12T07:03:23.551Z,11.93
2018-10-12T07:04:26.269Z,11.83
2018-10-12T07:05:29.174Z,12.20
2018-10-12T07:06:31.997Z,12.23
2018-10-12T07:07:34.979Z,12.77
2018-10-12T07:08:37.775Z,12.27
2018-10-12T07:09:40.491Z,12.03
2018-10-12T07:10:43.224Z,12.30
2018-10-12T07:11:45.928Z,12.87
2018-10-12T07:12:48.676Z,12.37
2018-10-12T07:13:51.539Z,12.37
2018-10-12T07:14:54.189Z,12.03
2018-10-12T07:15:56.891Z,13.20
2018-10-12T07:16:59.603Z,12.60
2018-10-12T07:18:02.295Z,14.27
2018-10-12T07:19:05.063Z,13.77
2018-10-12T07:20:07.852Z,13.43
2018-10-12T07:21:10.699Z,14.10
2018-10-12T07:22:13.401Z,15.23
2018-10-12T07:23:16.095Z,14.80
2018-10-12T07:24:18.855Z,14.40
2018-10-12T07:25:21.542Z,14.53
2018-10-12T07:26:24.239Z,15.53
2018-10-12T07:27:26.974Z,16.17
2018-10-12T07:28:29.691Z,15.70
2018-10-12T07:29:32.459Z,16.57
2018-10-12T07:30:35.152Z,16.10
2018-10-12T07:31:37.926Z,15.47
2018-10-12T07:32:40.556Z,16.57
2018-10-12T07:33:43.246Z,16.07
2018-10-12T07:34:45.997Z,16.60
2018-10-12T07:35:48.731Z,17.27
2018-10-12T07:36:51.447Z,17.27
2018-10-12T07:37:54.150Z,18.47
2018-10-12T07:38:56.843Z,18.87
2018-10-12T07:39:59.615Z,18.07
2018-10-12T07:41:02.303Z,17.83
2018-10-12T07:42:05.000Z,19.73
2018-10-12T07:43:07.695Z,17.43
2018-10-12T07:44:10.426Z,18.73
2018-10-12T07:45:13.123Z,19.30
2018-10-12T07:46:15.799Z,19.67
2018-10-12T07:47:18.576Z,18.37
2018-10-12T07:48:21.252Z,19.47
2018-10-12T07:49:23.944Z,18.37
2018-10-12T07:50:26.722Z,19.00
2018-10-12T07:51:29.391Z,19.70
2018-10-12T07:52:32.171Z,20.13
2018-10-12T07:53:34.851Z,20.90
2018-10-12T07:54:37.531Z,21.20
2018-10-12T07:55:40.283Z,20.13
2018-10-12T07:56:42.983Z,20.23
2018-10-12T07:57:45.679Z,19.80
2018-10-12T07:58:48.483Z,20.93
2018-10-12T07:59:51.206Z,19.20
2018-10-12T08:00:53.892Z,19.67
2018-10-12T08:01:56.593Z,22.80
2018-10-12T08:02:59.271Z,22.77
2018-10-12T08:04:01.979Z,22.37
2018-10-12T08:05:04.724Z,21.77
2018-10-12T08:06:07.499Z,23.30
2018-10-12T08:07:11.287Z,20.83
2018-10-12T08:08:14.007Z,20.17
2018-10-12T08:09:16.695Z,19.60
2018-10-12T08:10:19.412Z,21.57
2018-10-12T08:11:22.188Z,19.27
2018-10-12T08:12:24.921Z,18.73
2018-10-12T08:13:27.635Z,18.80
2018-10-12T08:14:30.326Z,18.30
2018-10-12T08:15:33.252Z,20.53
2018-10-12T08:16:36.033Z,18.57
2018-10-12T08:17:38.778Z,19.27
2018-10-12T08:18:42.227Z,18.43
2018-10-12T08:19:45.095Z,17.30
2018-10-12T08:20:47.895Z,18.10
2018-10-12T08:21:50.761Z,16.27
2018-10-12T08:22:53.503Z,17.57
2018-10-12T08:23:56.222Z,16.13
2018-10-12T08:24:58.915Z,15.57
2018-10-12T08:26:01.680Z,14.53
2018-10-12T08:27:04.671Z,16.03
2018-10-12T08:28:07.312Z,16.23
2018-10-12T08:29:09.995Z,14.57
2018-10-12T08:30:12.947Z,14.50
2018-10-12T08:31:15.649Z,15.30
2018-10-12T08:32:18.578Z,14.13
2018-10-12T08:33:21.399Z,15.17
2018-10-12T08:34:24.167Z,14.20
2018-10-12T08:35:26.855Z,13.27
2018-10-12T08:36:29.563Z,14.67
2018-10-12T08:37:32.380Z,13.10
2018-10-12T08:38:35.139Z,13.17
2018-10-12T08:39:37.811Z,12.73
2018-10-12T08:40:40.513Z,13.50
2018-10-12T08:41:43.292Z,12.40
2018-10-12T08:42:46.024Z,12.87
2018-10-12T08:43:48.712Z,12.90
2018-10-12T08:44:51.393Z,11.77
2018-10-12T08:45:54.083Z,14.30
2018-10-12T08:46:56.781Z,13.57
2018-10-12T08:47:59.547Z,12.87
2018-10-12T08:49:02.234Z,11.83
2018-10-12T08:50:05.058Z,12.30
2018-10-12T08:51:07.814Z,12.37
2018-10-12T08:52:10.531Z,11.87
2018-10-12T08:53:13.319Z,12.27
2018-10-12T08:54:16.081Z,11.47
2018-10-12T08:55:18.836Z,12.13
2018-10-12T08:56:21.506Z,11.63
2018-10-12T08:57:24.254Z,11.33
2018-10-12T08:58:27.013Z,10.97
2018-10-12T08:59:29.692Z,10.87
2018-10-12T09:00:32.450Z,11.23
2018-10-12T09:01:35.174Z,10.43
2018-10-12T09:02:37.880Z,9.87
2018-10-12T09:03:40.639Z,10.43
2018-10-12T09:04:43.315Z,10.33
2018-10-12T09:05:46.021Z,10.87
2018-10-12T09:06:48.711Z,11.10
2018-10-12T09:07:51.403Z,10.73
2018-10-12T09:08:54.164Z,11.00
2018-10-12T09:09:56.925Z,9.87
2018-10-12T09:10:59.600Z,10.83
2018-10-12T09:12:02.287Z,11.53
2018-10-12T09:13:05.092Z,12.83
2018-10-12T09:14:07.866Z,10.40
2018-10-12T09:15:10.595Z,12.70
2018-10-12T09:16:13.423Z,12.93
2018-10-12T09:17:16.130Z,13.57
2018-10-12T09:18:18.837Z,12.07
2018-10-12T09:19:21.583Z,10.70
2018-10-12T09:20:24.368Z,13.30
2018-10-12T09:21:27.015Z,10.63
2018-10-12T09:22:29.716Z,13.43
2018-10-12T09:23:32.419Z,15.07
2018-10-12T09:24:35.175Z,10.10
2018-10-12T09:25:37.871Z,13.80
2018-10-12T09:26:40.570Z,11.17
2018-10-12T09:27:43.283Z,10.90
2018-10-12T09:28:45.975Z,13.23
2018-10-12T09:29:48.791Z,10.33
2018-10-12T09:30:51.475Z,10.70
2018-10-12T09:31:54.252Z,10.67
2018-10-12T09:32:56.948Z,10.33
2018-10-12T09:33:59.646Z,10.20
2018-10-12T09:35:02.415Z,12.53
2018-10-12T09:36:05.115Z,10.77
2018-10-12T09:37:08.088Z,10.33
2018-10-12T09:38:10.863Z,11.73
2018-10-12T09:39:13.542Z,10.20
2018-10-12T09:40:16.323Z,14.10
2018-10-12T09:41:19.048Z,11.33
2018-10-12T09:42:21.860Z,10.67
2018-10-12T09:43:24.572Z,10.77
2018-10-12T09:44:27.251Z,9.67
2018-10-12T09:45:30.008Z,10.43
2018-10-12T09:46:32.671Z,11.13
2018-10-12T09:47:35.366Z,12.03
2018-10-12T09:48:38.066Z,9.93
2018-10-12T09:49:40.738Z,9.83
2018-10-12T09:50:43.774Z,10.37
2018-10-12T09:51:46.199Z,10.40
2018-10-12T09:52:48.881Z,10.20
2018-10-12T09:53:51.547Z,10.33
2018-10-12T09:54:54.223Z,11.30
2018-10-12T09:55:57.225Z,10.03
2018-10-12T09:57:05.567Z,10.33
2018-10-12T09:58:08.517Z,10.00
2018-10-12T09:59:11.208Z,10.23
2018-10-12T10:00:19.679Z,10.20
2018-10-12T10:01:27.899Z,10.90
2018-10-12T10:02:36.068Z,10.33
2018-10-12T10:03:44.278Z,9.63
2018-10-12T10:04:46.992Z,9.60
2018-10-12T10:05:49.754Z,10.50
2018-10-12T10:06:52.489Z,10.30
2018-10-12T10:07:55.349Z,9.70
2018-10-12T10:08:58.047Z,10.40
2018-10-12T10:10:00.744Z,11.10
2018-10-12T10:11:03.475Z,10.67
2018-10-12T10:12:06.526Z,10.80
2018-10-12T10:13:09.236Z,11.10
2018-10-12T10:14:11.983Z,10.60
2018-10-12T10:15:14.687Z,11.90
2018-10-12T10:16:17.402Z,11.77
2018-10-12T10:17:20.480Z,10.70
2018-10-12T10:18:23.248Z,11.27
2018-10-12T10:19:26.034Z,11.37
2018-10-12T10:20:28.725Z,10.77
2018-10-12T10:21:31.447Z,11.60
2018-10-12T10:22:34.535Z,12.10
2018-10-12T10:23:37.238Z,10.90
2018-10-12T10:24:39.995Z,10.90
2018-10-12T10:25:42.959Z,11.67
2018-10-12T10:26:45.686Z,12.67
2018-10-12T10:27:48.745Z,12.03
2018-10-12T10:28:51.467Z,12.27
2018-10-12T10:29:54.212Z,12.63
2018-10-12T10:30:59.491Z,12.33
2018-10-12T10:32:02.235Z,12.20
2018-10-12T10:33:05.339Z,13.03
2018-10-12T10:34:08.498Z,13.23
2018-10-12T10:35:11.091Z,14.03
2018-10-12T10:36:13.825Z,14.43
2018-10-12T10:37:16.571Z,14.87
2018-10-12T10:38:19.281Z,14.47
2018-10-12T10:39:22.002Z,14.30
2018-10-12T10:40:24.863Z,15.93
2018-10-12T10:41:27.595Z,15.13
2018-10-12T10:42:30.343Z,15.53
2018-10-12T10:43:33.343Z,15.27
2018-10-12T10:44:36.147Z,15.33
2018-10-12T10:45:38.915Z,14.20
2018-10-12T10:46:41.713Z,15.73
2018-10-12T10:47:44.505Z,13.63
2018-10-12T10:48:47.564Z,15.67
2018-10-12T10:49:50.356Z,15.67
2018-10-12T10:50:53.195Z,16.80
2018-10-12T10:51:55.925Z,16.70
2018-10-12T10:52:58.731Z,17.17
2018-10-12T10:54:01.773Z,17.37
2018-10-12T10:55:04.639Z,16.90
2018-10-12T10:56:07.511Z,17.03
2018-10-12T10:57:10.407Z,17.87
2018-10-12T10:58:13.139Z,18.07
2018-10-12T10:59:16.175Z,16.83
2018-10-12T11:00:18.955Z,16.50
2018-10-12T11:01:21.720Z,18.83
2018-10-12T11:02:24.469Z,18.53
2018-10-12T11:03:27.182Z,17.87
2018-10-12T11:04:31.042Z,17.93
2018-10-12T11:05:33.967Z,17.93
2018-10-12T11:06:36.713Z,18.77
2018-10-12T11:07:39.467Z,18.07
2018-10-12T11:08:42.229Z,18.43
2018-10-12T11:09:45.200Z,18.23
2018-10-12T11:10:48.016Z,18.43
2018-10-12T11:11:50.739Z,17.57
2018-10-12T11:12:53.547Z,17.57
2018-10-12T11:13:56.301Z,18.03
2018-10-12T11:14:59.361Z,17.87
2018-10-12T11:16:02.129Z,18.27
2018-10-12T11:17:04.889Z,17.33
2018-10-12T11:18:07.623Z,17.97
2018-10-12T11:19:10.414Z,18.70
2018-10-12T11:20:13.506Z,19.17
2018-10-12T11:21:16.254Z,19.00
2018-10-12T11:22:19.004Z,17.70
2018-10-12T11:23:21.743Z,20.10
2018-10-12T11:24:24.507Z,18.07
2018-10-12T11:25:27.377Z,18.80
2018-10-12T11:26:30.211Z,17.00
2018-10-12T11:27:32.984Z,18.43
2018-10-12T11:28:35.710Z,18.47
2018-10-12T11:29:38.419Z,17.40
2018-10-12T11:30:41.540Z,18.93
2018-10-12T11:31:44.280Z,18.90
2018-10-12T11:32:47.056Z,18.07
2018-10-12T11:33:49.803Z,17.63
2018-10-12T11:34:52.582Z,17.60
2018-10-12T11:35:55.630Z,18.47
2018-10-12T11:36:58.347Z,18.57
2018-10-12T11:38:01.079Z,18.47
2018-10-12T11:39:06.755Z,18.20
2018-10-12T11:40:09.527Z,17.33
2018-10-12T11:41:12.614Z,18.40
2018-10-12T11:42:15.320Z,18.53
2018-10-12T11:43:35.806Z,16.57
2018-10-12T11:44:38.513Z,17.03
2018-10-12T11:45:41.236Z,17.60
2018-10-12T11:46:44.250Z,18.43
2018-10-12T11:47:46.975Z,18.53
2018-10-12T11:48:49.687Z,17.27
2018-10-12T11:49:52.388Z,18.80
2018-10-12T11:50:55.124Z,17.77
2018-10-12T11:51:58.158Z,20.00
2018-10-12T11:53:00.894Z,18.13
2018-10-12T11:54:03.667Z,17.83
2018-10-12T11:55:07.261Z,17.97
2018-10-12T11:56:09.551Z,17.87
2018-10-12T11:57:12.587Z,18.80
2018-10-12T11:58:15.379Z,18.33
2018-10-12T11:59:18.168Z,17.30
2018-10-12T12:00:20.879Z,18.17
2018-10-12T12:01:23.615Z,18.77
2018-10-12T12:02:26.409Z,18.40
2018-10-12T12:03:29.151Z,17.83
2018-10-12T12:04:31.887Z,17.53
2018-10-12T12:05:34.615Z,17.63
2018-10-12T12:06:37.343Z,17.93
2018-10-12T12:07:40.241Z,18.30
2018-10-12T12:08:42.944Z,18.63
2018-10-12T12:09:45.687Z,19.60
2018-10-12T12:10:48.439Z,19.20
2018-10-12T12:11:51.174Z,18.07
2018-10-12T12:12:53.970Z,18.13
2018-10-12T12:13:56.766Z,18.77
2018-10-12T12:14:59.423Z,22.10
2018-10-12T12:16:02.136Z,19.70
2018-10-12T12:17:04.899Z,20.87
2018-10-12T12:18:07.723Z,20.40
2018-10-12T12:19:10.541Z,18.87
2018-10-12T12:20:13.247Z,19.43
2018-10-12T12:21:16.063Z,20.47
2018-10-12T12:22:18.824Z,20.27
2018-10-12T12:23:21.540Z,19.17
2018-10-12T12:24:24.235Z,19.07
2018-10-12T12:25:26.979Z,19.13
2018-10-12T12:26:29.731Z,18.63
2018-10-12T12:27:32.459Z,18.57
2018-10-12T12:28:35.218Z,20.07
2018-10-12T12:29:37.955Z,20.80
2018-10-12T12:30:40.718Z,19.17
2018-10-12T12:31:43.418Z,18.90
2018-10-12T12:32:46.171Z,19.40
2018-10-12T12:33:48.997Z,19.20
2018-10-12T12:34:51.841Z,19.20
2018-10-12T12:35:54.859Z,19.63
2018-10-12T12:36:57.275Z,19.60
2018-10-12T12:38:00.007Z,19.17
2018-10-12T12:39:03.211Z,19.23
2018-10-12T12:40:06.023Z,21.53
2018-10-12T12:41:08.775Z,18.83
2018-10-12T12:42:11.479Z,20.07
2018-10-12T12:43:14.215Z,19.60
2018-10-12T12:44:17.009Z,19.57
2018-10-12T12:45:19.693Z,20.03
2018-10-12T12:46:22.347Z,20.63
2018-10-12T12:47:25.256Z,19.90
2018-10-12T12:48:28.122Z,19.13
2018-10-12T12:49:30.825Z,20.13
2018-10-12T12:50:33.242Z,20.20
2018-10-12T12:51:35.902Z,18.63
2018-10-12T12:52:38.582Z,19.50
2018-10-12T12:53:41.681Z,19.57
2018-10-12T12:54:44.376Z,19.37
2018-10-12T12:55:47.041Z,19.93
2018-10-12T12:56:49.753Z,19.97
2018-10-12T12:57:52.418Z,20.53
2018-10-12T12:58:56.311Z,20.30
2018-10-12T12:59:59.043Z,21.33
2018-10-12T13:01:01.693Z,21.63
2018-10-12T13:02:04.371Z,21.10
2018-10-12T13:03:07.031Z,20.57
2018-10-12T13:04:09.728Z,21.53
2018-10-12T13:05:12.391Z,20.30
2018-10-12T13:06:15.040Z,19.53
2018-10-12T13:07:17.695Z,19.73
2018-10-12T13:08:20.443Z,21.50
2018-10-12T13:09:23.123Z,21.50
2018-10-12T13:10:25.826Z,21.17
2018-10-12T13:11:28.479Z,20.33
2018-10-12T13:12:31.159Z,20.57
2018-10-12T13:13:33.853Z,20.47
2018-10-12T13:14:36.539Z,19.77
2018-10-12T13:15:39.284Z,20.37
2018-10-12T13:16:41.958Z,19.93
2018-10-12T13:17:44.623Z,20.47
2018-10-12T13:18:47.292Z,19.33
2018-10-12T13:19:50.004Z,21.40
2018-10-12T13:20:52.767Z,21.10
2018-10-12T13:21:55.471Z,21.00
2018-10-12T13:22:58.155Z,20.47
2018-10-12T13:24:00.847Z,20.23
2018-10-12T13:25:03.659Z,21.03
2018-10-12T13:26:06.915Z,19.57
2018-10-12T13:27:09.439Z,20.97
2018-10-12T13:28:12.127Z,19.73
2018-10-12T13:29:14.808Z,20.40
2018-10-12T13:30:17.471Z,19.63
2018-10-12T13:31:20.225Z,19.57
2018-10-12T13:32:22.922Z,18.53
2018-10-12T13:33:25.587Z,19.87
2018-10-12T13:34:28.315Z,19.70
2018-10-12T13:35:31.024Z,19.07
2018-10-12T13:36:33.826Z,20.30
2018-10-12T13:37:36.574Z,18.77
2018-10-12T13:38:39.227Z,20.53
2018-10-12T13:39:41.924Z,19.37
2018-10-12T13:40:44.744Z,19.10